sensor_id;sensor_type;location;lat;lon;timestamp;pressure;altitude;pressure_sealevel;temperature;humidity
78839;BME280;68189;47.190;27.558;2023-02-28T00:01:34;100995.55;;;21.13;47.53
78839;BME280;68189;47.190;27.558;2023-02-28T00:04:05;100997.53;;;21.12;47.58
78839;BME280;68189;47.190;27.558;2023-02-28T00:06:38;100991.60;;;21.11;47.59
78839;BME280;68189;47.190;27.558;2023-02-28T00:09:08;100997.31;;;21.10;47.60
78839;BME280;68189;47.190;27.558;2023-02-28T00:11:38;100998.61;;;21.09;47.60
78839;BME280;68189;47.190;27.558;2023-02-28T00:14:09;101003.06;;;21.09;47.62
78839;BME280;68189;47.190;27.558;2023-02-28T00:16:39;101009.67;;;21.07;47.61
78839;BME280;68189;47.190;27.558;2023-02-28T00:19:09;101014.64;;;21.07;47.62
78839;BME280;68189;47.190;27.558;2023-02-28T00:21:41;101017.80;;;21.07;47.70
78839;BME280;68189;47.190;27.558;2023-02-28T00:24:12;101019.02;;;21.08;47.63
78839;BME280;68189;47.190;27.558;2023-02-28T00:26:42;101019.58;;;21.07;47.64
78839;BME280;68189;47.190;27.558;2023-02-28T00:29:12;101019.76;;;21.07;47.66
78839;BME280;68189;47.190;27.558;2023-02-28T00:31:42;101024.39;;;21.07;47.63
78839;BME280;68189;47.190;27.558;2023-02-28T00:34:13;101028.55;;;21.05;47.66
78839;BME280;68189;47.190;27.558;2023-02-28T00:36:43;101030.81;;;21.05;47.67
78839;BME280;68189;47.190;27.558;2023-02-28T00:39:14;101034.39;;;21.05;47.66
78839;BME280;68189;47.190;27.558;2023-02-28T00:41:45;101033.20;;;21.04;47.58
78839;BME280;68189;47.190;27.558;2023-02-28T00:44:15;101033.99;;;21.02;47.59
78839;BME280;68189;47.190;27.558;2023-02-28T00:46:46;101032.96;;;21.02;47.68
78839;BME280;68189;47.190;27.558;2023-02-28T00:49:16;101038.47;;;21.02;47.62
78839;BME280;68189;47.190;27.558;2023-02-28T00:51:46;101043.08;;;21.01;47.68
78839;BME280;68189;47.190;27.558;2023-02-28T00:54:17;101043.81;;;21.01;47.65
78839;BME280;68189;47.190;27.558;2023-02-28T00:56:48;101042.39;;;21.01;47.61
78839;BME280;68189;47.190;27.558;2023-02-28T00:59:19;101048.45;;;21.00;47.66
78839;BME280;68189;47.190;27.558;2023-02-28T01:01:50;101051.86;;;20.99;47.69
78839;BME280;68189;47.190;27.558;2023-02-28T01:04:20;101055.84;;;20.98;47.72
78839;BME280;68189;47.190;27.558;2023-02-28T01:06:51;101055.17;;;20.97;47.72
78839;BME280;68189;47.190;27.558;2023-02-28T01:09:21;101063.16;;;20.96;47.74
78839;BME280;68189;47.190;27.558;2023-02-28T01:11:51;101066.20;;;20.95;47.63
78839;BME280;68189;47.190;27.558;2023-02-28T01:14:21;101069.38;;;20.95;47.60
78839;BME280;68189;47.190;27.558;2023-02-28T01:16:52;101073.29;;;20.95;47.75
78839;BME280;68189;47.190;27.558;2023-02-28T01:19:22;101071.23;;;20.94;47.71
78839;BME280;68189;47.190;27.558;2023-02-28T01:21:52;101073.33;;;20.94;47.70
78839;BME280;68189;47.190;27.558;2023-02-28T01:24:23;101082.83;;;20.95;47.72
78839;BME280;68189;47.190;27.558;2023-02-28T01:26:53;101091.36;;;20.94;47.75
78839;BME280;68189;47.190;27.558;2023-02-28T01:29:24;101087.50;;;20.94;47.74
78839;BME280;68189;47.190;27.558;2023-02-28T01:31:54;101091.61;;;20.92;47.79
78839;BME280;68189;47.190;27.558;2023-02-28T01:34:25;101087.56;;;20.92;47.88
78839;BME280;68189;47.190;27.558;2023-02-28T01:36:56;101084.22;;;20.92;47.97
78839;BME280;68189;47.190;27.558;2023-02-28T01:39:27;101078.46;;;20.91;47.91
78839;BME280;68189;47.190;27.558;2023-02-28T01:41:57;101072.48;;;20.90;47.94
78839;BME280;68189;47.190;27.558;2023-02-28T01:47:45;101064.27;;;20.89;47.87
78839;BME280;68189;47.190;27.558;2023-02-28T01:50:18;101057.96;;;20.88;47.96
78839;BME280;68189;47.190;27.558;2023-02-28T01:52:50;101058.99;;;20.89;47.94
78839;BME280;68189;47.190;27.558;2023-02-28T01:55:23;101059.73;;;20.88;47.94
78839;BME280;68189;47.190;27.558;2023-02-28T01:57:59;101058.48;;;20.88;48.00
78839;BME280;68189;47.190;27.558;2023-02-28T02:00:32;101053.42;;;20.87;48.00
78839;BME280;68189;47.190;27.558;2023-02-28T02:03:07;101056.61;;;20.87;47.95
78839;BME280;68189;47.190;27.558;2023-02-28T02:05:40;101060.68;;;20.87;47.99
78839;BME280;68189;47.190;27.558;2023-02-28T02:08:13;101064.09;;;20.87;48.06
78839;BME280;68189;47.190;27.558;2023-02-28T02:10:46;101060.52;;;20.87;48.05
78839;BME280;68189;47.190;27.558;2023-02-28T02:13:41;101052.73;;;20.88;48.06
78839;BME280;68189;47.190;27.558;2023-02-28T02:16:26;101054.00;;;20.87;48.01
78839;BME280;68189;47.190;27.558;2023-02-28T02:19:11;101062.65;;;20.87;47.97
78839;BME280;68189;47.190;27.558;2023-02-28T02:22:12;101064.91;;;20.87;47.95
78839;BME280;68189;47.190;27.558;2023-02-28T02:28:34;101079.05;;;20.87;48.05
78839;BME280;68189;47.190;27.558;2023-02-28T02:31:36;101081.90;;;20.87;47.94
78839;BME280;68189;47.190;27.558;2023-02-28T02:34:42;101082.58;;;20.87;47.87
78839;BME280;68189;47.190;27.558;2023-02-28T02:37:29;101084.52;;;20.87;47.95
78839;BME280;68189;47.190;27.558;2023-02-28T02:40:07;101085.06;;;20.87;48.04
78839;BME280;68189;47.190;27.558;2023-02-28T02:42:44;101086.98;;;20.87;47.93
78839;BME280;68189;47.190;27.558;2023-02-28T02:45:23;101086.11;;;20.87;47.88
78839;BME280;68189;47.190;27.558;2023-02-28T02:47:58;101085.80;;;20.86;47.98
78839;BME280;68189;47.190;27.558;2023-02-28T02:50:33;101093.02;;;20.86;47.93
78839;BME280;68189;47.190;27.558;2023-02-28T02:53:06;101089.98;;;20.87;47.91
78839;BME280;68189;47.190;27.558;2023-02-28T02:55:41;101090.20;;;20.87;47.95
78839;BME280;68189;47.190;27.558;2023-02-28T02:58:17;101091.77;;;20.87;47.89
78839;BME280;68189;47.190;27.558;2023-02-28T03:00:51;101096.16;;;20.88;47.95
78839;BME280;68189;47.190;27.558;2023-02-28T03:03:23;101103.77;;;20.87;48.01
78839;BME280;68189;47.190;27.558;2023-02-28T03:05:59;101109.39;;;20.88;47.98
78839;BME280;68189;47.190;27.558;2023-02-28T03:08:33;101102.38;;;20.87;47.95
78839;BME280;68189;47.190;27.558;2023-02-28T03:11:06;101099.55;;;20.87;47.96
78839;BME280;68189;47.190;27.558;2023-02-28T03:13:54;101100.60;;;20.87;47.86
78839;BME280;68189;47.190;27.558;2023-02-28T03:19:37;101107.67;;;20.87;47.93
78839;BME280;68189;47.190;27.558;2023-02-28T03:22:27;101110.11;;;20.88;47.94
78839;BME280;68189;47.190;27.558;2023-02-28T03:25:07;101106.73;;;20.88;47.94
78839;BME280;68189;47.190;27.558;2023-02-28T03:27:42;101107.99;;;20.88;47.86
78839;BME280;68189;47.190;27.558;2023-02-28T03:30:20;101109.57;;;20.88;47.90
78839;BME280;68189;47.190;27.558;2023-02-28T03:32:57;101109.05;;;20.88;47.89
78839;BME280;68189;47.190;27.558;2023-02-28T03:35:34;101109.08;;;20.87;47.83
78839;BME280;68189;47.190;27.558;2023-02-28T03:38:09;101106.95;;;20.87;47.86
78839;BME280;68189;47.190;27.558;2023-02-28T03:40:45;101109.88;;;20.89;47.89
78839;BME280;68189;47.190;27.558;2023-02-28T03:43:20;101110.58;;;20.89;47.87
78839;BME280;68189;47.190;27.558;2023-02-28T03:45:54;101111.45;;;20.89;47.83
78839;BME280;68189;47.190;27.558;2023-02-28T03:48:31;101118.14;;;20.89;47.87
78839;BME280;68189;47.190;27.558;2023-02-28T03:51:09;101115.98;;;20.90;47.87
78839;BME280;68189;47.190;27.558;2023-02-28T03:53:44;101111.39;;;20.90;47.81
78839;BME280;68189;47.190;27.558;2023-02-28T03:56:18;101108.07;;;20.89;47.77
78839;BME280;68189;47.190;27.558;2023-02-28T03:58:54;101111.23;;;20.89;47.89
78839;BME280;68189;47.190;27.558;2023-02-28T04:01:30;101111.40;;;20.90;47.89
78839;BME280;68189;47.190;27.558;2023-02-28T04:04:03;101112.56;;;20.91;47.91
78839;BME280;68189;47.190;27.558;2023-02-28T04:06:34;101116.42;;;20.91;47.95
78839;BME280;68189;47.190;27.558;2023-02-28T04:09:08;101113.81;;;20.91;47.91
78839;BME280;68189;47.190;27.558;2023-02-28T04:11:40;101114.67;;;20.91;47.87
78839;BME280;68189;47.190;27.558;2023-02-28T04:14:12;101116.15;;;20.90;47.90
78839;BME280;68189;47.190;27.558;2023-02-28T04:16:43;101118.27;;;20.90;47.92
78839;BME280;68189;47.190;27.558;2023-02-28T04:19:14;101120.21;;;20.90;47.87
78839;BME280;68189;47.190;27.558;2023-02-28T04:21:46;101122.52;;;20.90;47.90
78839;BME280;68189;47.190;27.558;2023-02-28T04:24:19;101119.46;;;20.91;47.85
78839;BME280;68189;47.190;27.558;2023-02-28T04:26:50;101120.36;;;20.90;47.84
78839;BME280;68189;47.190;27.558;2023-02-28T04:29:23;101120.34;;;20.91;47.88
78839;BME280;68189;47.190;27.558;2023-02-28T04:31:54;101119.95;;;20.91;47.95
78839;BME280;68189;47.190;27.558;2023-02-28T04:34:27;101120.95;;;20.92;47.88
78839;BME280;68189;47.190;27.558;2023-02-28T04:36:58;101121.98;;;20.93;47.89
78839;BME280;68189;47.190;27.558;2023-02-28T04:39:34;101119.66;;;20.93;47.91
78839;BME280;68189;47.190;27.558;2023-02-28T04:42:05;101117.21;;;20.93;47.88
78839;BME280;68189;47.190;27.558;2023-02-28T04:44:35;101120.15;;;20.94;47.85
78839;BME280;68189;47.190;27.558;2023-02-28T04:47:05;101120.09;;;20.95;47.82
78839;BME280;68189;47.190;27.558;2023-02-28T04:49:36;101116.17;;;20.95;47.89
78839;BME280;68189;47.190;27.558;2023-02-28T04:52:06;101118.31;;;20.95;47.86
78839;BME280;68189;47.190;27.558;2023-02-28T04:54:39;101121.52;;;20.94;47.92
78839;BME280;68189;47.190;27.558;2023-02-28T04:57:10;101119.94;;;20.95;47.83
78839;BME280;68189;47.190;27.558;2023-02-28T04:59:40;101123.68;;;20.94;47.80
78839;BME280;68189;47.190;27.558;2023-02-28T05:02:10;101123.20;;;20.93;47.81
78839;BME280;68189;47.190;27.558;2023-02-28T05:04:41;101128.67;;;20.93;47.86
78839;BME280;68189;47.190;27.558;2023-02-28T05:07:12;101133.05;;;20.93;47.87
78839;BME280;68189;47.190;27.558;2023-02-28T05:09:42;101137.66;;;20.93;47.83
78839;BME280;68189;47.190;27.558;2023-02-28T05:12:12;101142.08;;;20.93;47.87
78839;BME280;68189;47.190;27.558;2023-02-28T05:14:42;101141.34;;;20.94;47.86
78839;BME280;68189;47.190;27.558;2023-02-28T05:17:13;101141.66;;;20.95;47.83
78839;BME280;68189;47.190;27.558;2023-02-28T05:19:43;101142.53;;;20.95;47.84
78839;BME280;68189;47.190;27.558;2023-02-28T05:22:17;101145.55;;;20.95;47.74
78839;BME280;68189;47.190;27.558;2023-02-28T05:24:47;101148.21;;;20.94;47.84
78839;BME280;68189;47.190;27.558;2023-02-28T05:27:18;101147.70;;;20.94;47.88
78839;BME280;68189;47.190;27.558;2023-02-28T05:29:48;101148.04;;;20.94;47.86
78839;BME280;68189;47.190;27.558;2023-02-28T05:32:18;101152.59;;;20.95;47.85
78839;BME280;68189;47.190;27.558;2023-02-28T05:34:49;101158.58;;;20.95;47.85
78839;BME280;68189;47.190;27.558;2023-02-28T05:37:19;101162.05;;;20.96;47.83
78839;BME280;68189;47.190;27.558;2023-02-28T05:39:49;101165.70;;;20.98;47.90
78839;BME280;68189;47.190;27.558;2023-02-28T05:42:19;101168.67;;;20.98;47.90
78839;BME280;68189;47.190;27.558;2023-02-28T05:44:50;101169.31;;;20.99;47.83
78839;BME280;68189;47.190;27.558;2023-02-28T05:47:20;101167.50;;;21.00;47.79
78839;BME280;68189;47.190;27.558;2023-02-28T05:49:51;101170.13;;;21.01;47.89
78839;BME280;68189;47.190;27.558;2023-02-28T05:52:21;101177.16;;;21.01;47.84
78839;BME280;68189;47.190;27.558;2023-02-28T05:54:52;101177.64;;;21.02;47.80
78839;BME280;68189;47.190;27.558;2023-02-28T05:57:22;101189.61;;;21.03;47.90
78839;BME280;68189;47.190;27.558;2023-02-28T05:59:52;101190.63;;;21.03;47.91
78839;BME280;68189;47.190;27.558;2023-02-28T06:02:23;101191.64;;;21.04;47.89
78839;BME280;68189;47.190;27.558;2023-02-28T06:04:53;101193.73;;;21.05;47.94
78839;BME280;68189;47.190;27.558;2023-02-28T06:07:24;101201.63;;;21.06;47.95
78839;BME280;68189;47.190;27.558;2023-02-28T06:09:55;101203.94;;;21.05;48.02
78839;BME280;68189;47.190;27.558;2023-02-28T06:12:25;101206.88;;;21.06;47.95
78839;BME280;68189;47.190;27.558;2023-02-28T06:14:56;101205.95;;;21.07;48.04
78839;BME280;68189;47.190;27.558;2023-02-28T06:17:26;101201.77;;;21.09;48.02
78839;BME280;68189;47.190;27.558;2023-02-28T06:19:57;101202.88;;;21.11;48.11
78839;BME280;68189;47.190;27.558;2023-02-28T06:22:27;101198.19;;;21.13;48.11
78839;BME280;68189;47.190;27.558;2023-02-28T06:24:58;101189.50;;;21.17;48.13
78839;BME280;68189;47.190;27.558;2023-02-28T06:27:28;101190.78;;;21.19;48.24
78839;BME280;68189;47.190;27.558;2023-02-28T06:29:59;101190.73;;;21.22;48.30
78839;BME280;68189;47.190;27.558;2023-02-28T06:32:29;101186.85;;;21.29;48.20
78839;BME280;68189;47.190;27.558;2023-02-28T06:34:59;101190.02;;;21.33;48.16
78839;BME280;68189;47.190;27.558;2023-02-28T06:37:30;101191.41;;;21.36;48.45
78839;BME280;68189;47.190;27.558;2023-02-28T06:40:00;101192.83;;;21.39;48.52
78839;BME280;68189;47.190;27.558;2023-02-28T06:42:31;101190.20;;;21.41;48.51
78839;BME280;68189;47.190;27.558;2023-02-28T06:45:04;101187.48;;;21.45;48.43
78839;BME280;68189;47.190;27.558;2023-02-28T06:47:38;101186.02;;;21.49;48.25
78839;BME280;68189;47.190;27.558;2023-02-28T06:50:11;101190.95;;;21.53;48.04
78839;BME280;68189;47.190;27.558;2023-02-28T06:52:42;101192.56;;;21.55;47.78
78839;BME280;68189;47.190;27.558;2023-02-28T06:55:13;101196.92;;;21.56;47.52
78839;BME280;68189;47.190;27.558;2023-02-28T06:57:43;101201.73;;;21.59;47.37
78839;BME280;68189;47.190;27.558;2023-02-28T07:00:16;101205.70;;;21.61;47.36
78839;BME280;68189;47.190;27.558;2023-02-28T07:02:47;101199.73;;;21.63;47.44
78839;BME280;68189;47.190;27.558;2023-02-28T07:05:18;101200.65;;;21.65;47.40
78839;BME280;68189;47.190;27.558;2023-02-28T07:07:49;101201.30;;;21.66;47.44
78839;BME280;68189;47.190;27.558;2023-02-28T07:10:21;101207.95;;;21.68;47.52
78839;BME280;68189;47.190;27.558;2023-02-28T07:12:51;101204.23;;;21.68;47.36
78839;BME280;68189;47.190;27.558;2023-02-28T07:15:22;101208.79;;;21.65;46.92
78839;BME280;68189;47.190;27.558;2023-02-28T07:17:52;101211.33;;;21.61;46.40
78839;BME280;68189;47.190;27.558;2023-02-28T07:20:23;101209.36;;;21.55;45.89
78839;BME280;68189;47.190;27.558;2023-02-28T07:22:54;101212.20;;;21.52;45.56
78839;BME280;68189;47.190;27.558;2023-02-28T07:25:26;101210.83;;;21.51;45.09
78839;BME280;68189;47.190;27.558;2023-02-28T07:27:58;101213.89;;;21.53;45.14
78839;BME280;68189;47.190;27.558;2023-02-28T07:30:29;101218.83;;;21.57;45.26
78839;BME280;68189;47.190;27.558;2023-02-28T07:32:59;101220.88;;;21.61;45.33
78839;BME280;68189;47.190;27.558;2023-02-28T07:35:30;101221.73;;;21.65;45.36
78839;BME280;68189;47.190;27.558;2023-02-28T07:38:01;101219.70;;;21.69;45.44
78839;BME280;68189;47.190;27.558;2023-02-28T07:40:32;101222.69;;;21.73;45.45
78839;BME280;68189;47.190;27.558;2023-02-28T07:43:03;101220.70;;;21.76;45.43
78839;BME280;68189;47.190;27.558;2023-02-28T07:45:34;101222.66;;;21.82;45.46
78839;BME280;68189;47.190;27.558;2023-02-28T07:48:05;101217.01;;;21.87;45.50
78839;BME280;68189;47.190;27.558;2023-02-28T07:50:36;101218.39;;;21.94;45.54
78839;BME280;68189;47.190;27.558;2023-02-28T07:53:06;101218.25;;;21.99;45.46
78839;BME280;68189;47.190;27.558;2023-02-28T07:55:36;101220.65;;;22.03;45.48
78839;BME280;68189;47.190;27.558;2023-02-28T07:58:07;101223.45;;;22.07;45.56
78839;BME280;68189;47.190;27.558;2023-02-28T08:00:37;101225.52;;;22.10;45.49
78839;BME280;68189;47.190;27.558;2023-02-28T08:03:10;101229.23;;;22.14;45.48
78839;BME280;68189;47.190;27.558;2023-02-28T08:05:41;101233.05;;;22.17;45.45
78839;BME280;68189;47.190;27.558;2023-02-28T08:08:12;101235.11;;;22.21;45.43
78839;BME280;68189;47.190;27.558;2023-02-28T08:10:42;101238.06;;;22.25;45.47
78839;BME280;68189;47.190;27.558;2023-02-28T08:13:13;101239.11;;;22.28;45.42
78839;BME280;68189;47.190;27.558;2023-02-28T08:15:44;101240.17;;;22.31;45.30
78839;BME280;68189;47.190;27.558;2023-02-28T08:18:16;101246.50;;;22.35;45.36
78839;BME280;68189;47.190;27.558;2023-02-28T08:20:47;101244.50;;;22.39;45.32
78839;BME280;68189;47.190;27.558;2023-02-28T08:23:17;101247.30;;;22.43;45.37
78839;BME280;68189;47.190;27.558;2023-02-28T08:25:55;101244.39;;;22.47;45.29
78839;BME280;68189;47.190;27.558;2023-02-28T08:28:25;101247.52;;;22.50;45.22
78839;BME280;68189;47.190;27.558;2023-02-28T08:30:56;101248.56;;;22.53;45.23
78839;BME280;68189;47.190;27.558;2023-02-28T08:33:27;101247.84;;;22.56;45.28
78839;BME280;68189;47.190;27.558;2023-02-28T08:36:00;101250.80;;;22.60;45.21
78839;BME280;68189;47.190;27.558;2023-02-28T08:38:30;101247.58;;;22.63;45.29
78839;BME280;68189;47.190;27.558;2023-02-28T08:41:03;101248.75;;;22.67;45.20
78839;BME280;68189;47.190;27.558;2023-02-28T08:43:35;101244.77;;;22.71;45.02
78839;BME280;68189;47.190;27.558;2023-02-28T08:46:06;101248.84;;;22.77;45.10
78839;BME280;68189;47.190;27.558;2023-02-28T08:48:37;101250.44;;;22.83;45.00
78839;BME280;68189;47.190;27.558;2023-02-28T08:51:11;101246.19;;;22.88;45.06
78839;BME280;68189;47.190;27.558;2023-02-28T08:53:40;101242.82;;;22.94;44.86
78839;BME280;68189;47.190;27.558;2023-02-28T08:56:12;101241.19;;;23.00;44.81
78839;BME280;68189;47.190;27.558;2023-02-28T08:58:43;101241.86;;;23.05;44.81
78839;BME280;68189;47.190;27.558;2023-02-28T09:01:16;101245.30;;;23.13;44.67
78839;BME280;68189;47.190;27.558;2023-02-28T09:03:48;101243.20;;;23.21;44.69
78839;BME280;68189;47.190;27.558;2023-02-28T09:06:21;101240.85;;;23.30;44.52
78839;BME280;68189;47.190;27.558;2023-02-28T09:08:52;101241.83;;;23.39;44.47
78839;BME280;68189;47.190;27.558;2023-02-28T09:11:24;101242.74;;;23.47;44.23
78839;BME280;68189;47.190;27.558;2023-02-28T09:13:54;101241.45;;;23.53;44.13
78839;BME280;68189;47.190;27.558;2023-02-28T09:16:25;101246.27;;;23.61;43.99
78839;BME280;68189;47.190;27.558;2023-02-28T09:18:56;101246.46;;;23.68;43.85
78839;BME280;68189;47.190;27.558;2023-02-28T09:21:27;101246.25;;;23.76;43.67
78839;BME280;68189;47.190;27.558;2023-02-28T09:23:58;101243.52;;;23.85;43.49
78839;BME280;68189;47.190;27.558;2023-02-28T09:26:28;101242.96;;;23.94;43.45
78839;BME280;68189;47.190;27.558;2023-02-28T09:28:59;101242.89;;;24.03;43.28
78839;BME280;68189;47.190;27.558;2023-02-28T09:31:31;101240.34;;;24.08;43.13
78839;BME280;68189;47.190;27.558;2023-02-28T09:34:03;101234.85;;;24.16;43.08
78839;BME280;68189;47.190;27.558;2023-02-28T09:36:34;101235.00;;;24.24;42.86
78839;BME280;68189;47.190;27.558;2023-02-28T09:39:07;101233.95;;;24.26;42.78
78839;BME280;68189;47.190;27.558;2023-02-28T09:41:41;101236.03;;;24.27;42.85
78839;BME280;68189;47.190;27.558;2023-02-28T09:44:24;101245.62;;;24.27;42.70
78839;BME280;68189;47.190;27.558;2023-02-28T09:46:59;101246.00;;;24.24;42.56
78839;BME280;68189;47.190;27.558;2023-02-28T09:49:31;101247.80;;;24.24;42.57
78839;BME280;68189;47.190;27.558;2023-02-28T09:52:05;101246.58;;;24.26;42.36
78839;BME280;68189;47.190;27.558;2023-02-28T09:54:38;101242.20;;;24.35;42.25
78839;BME280;68189;47.190;27.558;2023-02-28T09:57:13;101242.23;;;24.47;42.00
78839;BME280;68189;47.190;27.558;2023-02-28T09:59:59;101240.42;;;24.50;41.41
78839;BME280;68189;47.190;27.558;2023-02-28T10:02:56;101237.78;;;24.47;41.44
78839;BME280;68189;47.190;27.558;2023-02-28T10:05:35;101234.21;;;24.43;41.37
78839;BME280;68189;47.190;27.558;2023-02-28T10:08:15;101235.27;;;24.38;41.67
78839;BME280;68189;47.190;27.558;2023-02-28T10:10:49;101238.86;;;24.35;41.79
78839;BME280;68189;47.190;27.558;2023-02-28T10:13:26;101233.95;;;24.31;41.97
78839;BME280;68189;47.190;27.558;2023-02-28T10:16:01;101233.86;;;24.28;41.79
78839;BME280;68189;47.190;27.558;2023-02-28T10:18:40;101236.29;;;24.23;41.94
78839;BME280;68189;47.190;27.558;2023-02-28T10:21:17;101232.63;;;24.20;41.94
78839;BME280;68189;47.190;27.558;2023-02-28T10:23:51;101235.61;;;24.13;42.08
78839;BME280;68189;47.190;27.558;2023-02-28T10:26:25;101234.77;;;24.07;42.31
78839;BME280;68189;47.190;27.558;2023-02-28T10:28:56;101233.23;;;24.01;42.07
78839;BME280;68189;47.190;27.558;2023-02-28T10:31:27;101233.05;;;23.90;41.17
78839;BME280;68189;47.190;27.558;2023-02-28T10:33:58;101228.08;;;23.69;40.67
78839;BME280;68189;47.190;27.558;2023-02-28T10:36:28;101223.57;;;23.47;40.38
78839;BME280;68189;47.190;27.558;2023-02-28T10:38:59;101221.73;;;23.24;40.44
78839;BME280;68189;47.190;27.558;2023-02-28T10:41:32;101215.85;;;23.05;40.26
78839;BME280;68189;47.190;27.558;2023-02-28T10:44:22;101212.52;;;22.91;40.40
78839;BME280;68189;47.190;27.558;2023-02-28T10:46:53;101204.57;;;22.77;40.53
78839;BME280;68189;47.190;27.558;2023-02-28T10:49:25;101203.61;;;22.70;40.46
78839;BME280;68189;47.190;27.558;2023-02-28T10:51:59;101196.94;;;22.63;40.41
78839;BME280;68189;47.190;27.558;2023-02-28T10:54:32;101193.28;;;22.60;40.40
78839;BME280;68189;47.190;27.558;2023-02-28T10:57:18;101195.54;;;22.57;40.37
78839;BME280;68189;47.190;27.558;2023-02-28T10:59:52;101196.89;;;22.55;40.17
78839;BME280;68189;47.190;27.558;2023-02-28T11:02:35;101197.52;;;22.54;40.28
78839;BME280;68189;47.190;27.558;2023-02-28T11:05:30;101195.95;;;22.54;40.27
78839;BME280;68189;47.190;27.558;2023-02-28T11:08:10;101193.64;;;22.51;40.20
78839;BME280;68189;47.190;27.558;2023-02-28T11:10:47;101190.96;;;22.46;40.07
78839;BME280;68189;47.190;27.558;2023-02-28T11:13:24;101189.41;;;22.40;40.08
78839;BME280;68189;47.190;27.558;2023-02-28T11:15:58;101189.25;;;22.36;40.06
78839;BME280;68189;47.190;27.558;2023-02-28T11:18:33;101187.33;;;22.33;40.06
78839;BME280;68189;47.190;27.558;2023-02-28T11:21:07;101187.33;;;22.30;40.12
78839;BME280;68189;47.190;27.558;2023-02-28T11:23:42;101183.77;;;22.27;40.09
78839;BME280;68189;47.190;27.558;2023-02-28T11:26:37;101180.76;;;22.22;39.89
78839;BME280;68189;47.190;27.558;2023-02-28T11:29:22;101179.44;;;22.20;40.04
78839;BME280;68189;47.190;27.558;2023-02-28T11:32:16;101175.17;;;22.23;40.45
78839;BME280;68189;47.190;27.558;2023-02-28T11:35:00;101169.66;;;22.30;39.61
78839;BME280;68189;47.190;27.558;2023-02-28T11:37:32;101169.61;;;22.33;39.04
78839;BME280;68189;47.190;27.558;2023-02-28T11:40:04;101170.02;;;22.32;38.83
78839;BME280;68189;47.190;27.558;2023-02-28T11:42:49;101166.31;;;22.32;38.47
78839;BME280;68189;47.190;27.558;2023-02-28T11:45:34;101165.27;;;22.32;37.82
78839;BME280;68189;47.190;27.558;2023-02-28T11:48:16;101161.45;;;22.28;37.39
78839;BME280;68189;47.190;27.558;2023-02-28T11:54:07;101161.12;;;22.22;37.03
78839;BME280;68189;47.190;27.558;2023-02-28T11:56:43;101164.55;;;22.17;36.55
78839;BME280;68189;47.190;27.558;2023-02-28T11:59:41;101161.06;;;22.14;36.49
78839;BME280;68189;47.190;27.558;2023-02-28T12:02:38;101156.63;;;22.08;36.23
78839;BME280;68189;47.190;27.558;2023-02-28T12:05:26;101156.68;;;22.05;35.98
78839;BME280;68189;47.190;27.558;2023-02-28T12:08:09;101156.33;;;22.02;35.90
78839;BME280;68189;47.190;27.558;2023-02-28T12:10:55;101163.84;;;21.98;35.75
78839;BME280;68189;47.190;27.558;2023-02-28T12:13:40;101160.13;;;21.92;35.54
78839;BME280;68189;47.190;27.558;2023-02-28T12:16:29;101160.63;;;21.87;36.05
78839;BME280;68189;47.190;27.558;2023-02-28T12:19:18;101156.23;;;21.86;36.26
78839;BME280;68189;47.190;27.558;2023-02-28T12:22:23;101154.94;;;21.87;36.53
78839;BME280;68189;47.190;27.558;2023-02-28T12:27:59;101158.08;;;21.93;37.12
78839;BME280;68189;47.190;27.558;2023-02-28T12:30:32;101150.92;;;21.95;37.33
78839;BME280;68189;47.190;27.558;2023-02-28T12:33:06;101148.70;;;21.97;37.47
78839;BME280;68189;47.190;27.558;2023-02-28T12:35:41;101146.32;;;21.98;37.82
78839;BME280;68189;47.190;27.558;2023-02-28T12:38:19;101148.34;;;22.00;38.17
78839;BME280;68189;47.190;27.558;2023-02-28T12:40:54;101141.86;;;22.01;38.43
78839;BME280;68189;47.190;27.558;2023-02-28T12:43:30;101141.63;;;22.02;38.74
78839;BME280;68189;47.190;27.558;2023-02-28T12:46:07;101143.30;;;22.04;39.11
78839;BME280;68189;47.190;27.558;2023-02-28T12:48:44;101143.05;;;22.05;39.41
78839;BME280;68189;47.190;27.558;2023-02-28T12:51:18;101142.92;;;22.07;39.80
78839;BME280;68189;47.190;27.558;2023-02-28T12:53:59;101147.92;;;22.09;40.12
78839;BME280;68189;47.190;27.558;2023-02-28T12:56:44;101149.20;;;22.11;40.50
78839;BME280;68189;47.190;27.558;2023-02-28T12:59:25;101145.92;;;22.13;40.81
78839;BME280;68189;47.190;27.558;2023-02-28T13:02:08;101148.02;;;22.13;41.10
78839;BME280;68189;47.190;27.558;2023-02-28T13:05:08;101138.29;;;22.13;41.35
78839;BME280;68189;47.190;27.558;2023-02-28T13:08:16;101141.77;;;22.14;41.59
78839;BME280;68189;47.190;27.558;2023-02-28T13:10:52;101138.30;;;22.15;41.74
78839;BME280;68189;47.190;27.558;2023-02-28T13:13:26;101134.70;;;22.17;41.81
78839;BME280;68189;47.190;27.558;2023-02-28T13:16:07;101133.67;;;22.16;42.01
78839;BME280;68189;47.190;27.558;2023-02-28T13:18:42;101126.25;;;22.16;42.11
78839;BME280;68189;47.190;27.558;2023-02-28T13:21:26;101122.70;;;22.17;42.22
78839;BME280;68189;47.190;27.558;2023-02-28T13:24:07;101124.80;;;22.17;42.34
78839;BME280;68189;47.190;27.558;2023-02-28T13:27:22;101124.42;;;22.17;42.41
78839;BME280;68189;47.190;27.558;2023-02-28T13:29:54;101123.34;;;22.17;42.49
78839;BME280;68189;47.190;27.558;2023-02-28T13:32:36;101119.28;;;22.17;42.62
78839;BME280;68189;47.190;27.558;2023-02-28T13:35:42;101119.13;;;22.17;42.73